Time;durP1;ratioP1;P1;durP2;ratioP2;P2;SDS_P1;SDS_P2;PMS_P1;PMS_P2;Temp;Humidity;BMP_temperature;BMP_pressure;BME280_temperature;BME280_humidity;BME280_pressure;Samples;Min_cycle;Max_cycle;Signal;HPM_P1;HPM_P2
2021/08/18 00:01:55;;;;;;;11.18;6.32;;;;;;;;;;5014424;28;20018;-43
2021/08/18 00:04:21;;;;;;;10.48;5.43;;;;;;;;;;5014481;28;20026;-43
2021/08/18 00:06:50;;;;;;;9.60;6.00;;;;;;;;;;5014445;28;20099;-43
2021/08/18 00:09:16;;;;;;;7.47;4.68;;;;;;;;;;5013999;28;20037;-42
2021/08/18 00:11:42;;;;;;;9.45;5.95;;;;;;;;;;5014224;28;20474;-42
2021/08/18 00:14:08;;;;;;;11.05;5.95;;;;;;;;;;5014248;28;20038;-43
2021/08/18 00:16:35;;;;;;;8.30;4.55;;;;;;;;;;5014219;28;20038;-43
2021/08/18 00:19:01;;;;;;;31.45;21.63;;;;;;;;;;5014132;28;20014;-44
2021/08/18 00:21:27;;;;;;;34.55;24.92;;;;;;;;;;5014115;28;20076;-44
2021/08/18 00:23:53;;;;;;;7.28;4.40;;;;;;;;;;5014040;28;20025;-44
2021/08/18 00:26:26;;;;;;;17.58;9.65;;;;;;;;;;5014050;28;20045;-43
2021/08/18 00:28:52;;;;;;;11.63;6.53;;;;;;;;;;5013524;28;20112;-43
2021/08/18 00:31:18;;;;;;;18.02;12.18;;;;;;;;;;5014058;28;20367;-43
2021/08/18 00:33:44;;;;;;;16.70;11.40;;;;;;;;;;5014037;28;20097;-42
2021/08/18 00:36:10;;;;;;;8.05;4.50;;;;;;;;;;5013854;28;20060;-43
2021/08/18 00:38:36;;;;;;;27.88;18.20;;;;;;;;;;5013828;28;20382;-43
2021/08/18 00:41:07;;;;;;;9.18;4.93;;;;;;;;;;5013725;28;20115;-43
2021/08/18 00:43:33;;;;;;;8.40;5.78;;;;;;;;;;5013794;28;20026;-43
2021/08/18 00:45:59;;;;;;;3.78;2.25;;;;;;;;;;5013617;28;20497;-43
2021/08/18 00:48:25;;;;;;;2.83;1.80;;;;;;;;;;5013904;28;20109;-43
2021/08/18 00:50:51;;;;;;;4.20;2.47;;;;;;;;;;5012567;28;20033;-42
2021/08/18 00:53:17;;;;;;;20.13;11.65;;;;;;;;;;5013673;28;20026;-43
2021/08/18 00:55:43;;;;;;;12.60;7.55;;;;;;;;;;5013442;28;20441;-42
2021/08/18 00:58:10;;;;;;;8.90;4.78;;;;;;;;;;5013516;28;20025;-43
2021/08/18 01:00:36;;;;;;;25.73;17.13;;;;;;;;;;5013659;28;20029;-42
2021/08/18 01:03:02;;;;;;;48.25;28.20;;;;;;;;;;5013474;28;20026;-42
2021/08/18 01:05:31;;;;;;;23.00;14.68;;;;;;;;;;5013578;28;20490;-42
2021/08/18 01:07:59;;;;;;;15.38;9.73;;;;;;;;;;5013348;28;20523;-43
2021/08/18 01:10:26;;;;;;;47.75;33.42;;;;;;;;;;5013168;28;20052;-42
2021/08/18 01:12:56;;;;;;;22.13;13.20;;;;;;;;;;5012227;28;20048;-43
2021/08/18 01:15:24;;;;;;;11.23;6.13;;;;;;;;;;5013369;28;20113;-43
2021/08/18 01:17:51;;;;;;;8.48;2.90;;;;;;;;;;5013429;28;20080;-43
2021/08/18 01:20:18;;;;;;;5.65;2.03;;;;;;;;;;5013388;28;20029;-43
2021/08/18 01:22:45;;;;;;;4.13;2.17;;;;;;;;;;5013292;28;20025;-42
2021/08/18 01:25:11;;;;;;;4.80;1.50;;;;;;;;;;5013267;28;20034;-42
2021/08/18 01:27:38;;;;;;;4.63;1.67;;;;;;;;;;5013312;28;20117;-43
2021/08/18 01:30:05;;;;;;;4.75;1.50;;;;;;;;;;5013233;28;20058;-43
2021/08/18 01:32:51;;;;;;;5.35;1.50;;;;;;;;;;5013366;28;20097;-43
2021/08/18 01:35:21;;;;;;;3.67;1.52;;;;;;;;;;5006067;28;20633;-43
2021/08/18 01:37:47;;;;;;;3.15;1.45;;;;;;;;;;5013336;28;20024;-42
2021/08/18 01:40:13;;;;;;;2.42;1.50;;;;;;;;;;5013361;28;20034;-43
2021/08/18 01:42:39;;;;;;;5.35;1.80;;;;;;;;;;5017065;28;20080;-43
2021/08/18 01:45:06;;;;;;;3.10;1.42;;;;;;;;;;5017164;28;20038;-43
2021/08/18 01:47:32;;;;;;;2.55;1.40;;;;;;;;;;5017163;28;20080;-42
2021/08/18 01:49:59;;;;;;;3.40;1.55;;;;;;;;;;5016954;28;20033;-42
2021/08/18 01:52:25;;;;;;;4.72;1.25;;;;;;;;;;5017070;28;20061;-42
2021/08/18 01:54:51;;;;;;;2.40;1.40;;;;;;;;;;5016749;28;20061;-43
2021/08/18 01:57:17;;;;;;;3.80;1.73;;;;;;;;;;5016966;28;20030;-43
2021/08/18 01:59:43;;;;;;;3.25;1.38;;;;;;;;;;5016815;28;20026;-42
2021/08/18 02:02:09;;;;;;;4.68;1.40;;;;;;;;;;5016721;28;20025;-43
2021/08/18 02:04:36;;;;;;;6.72;1.60;;;;;;;;;;5016744;28;20026;-44
2021/08/18 02:07:03;;;;;;;10.07;1.35;;;;;;;;;;5016647;28;20469;-43
2021/08/18 02:09:29;;;;;;;6.43;1.23;;;;;;;;;;5016575;28;20050;-43
2021/08/18 02:11:55;;;;;;;3.72;1.40;;;;;;;;;;5016637;28;20024;-43
2021/08/18 02:14:21;;;;;;;2.30;1.25;;;;;;;;;;5016459;28;20108;-42
2021/08/18 02:16:47;;;;;;;2.13;1.15;;;;;;;;;;5016636;28;20026;-43
2021/08/18 02:19:13;;;;;;;4.13;1.77;;;;;;;;;;5016488;28;20462;-42
2021/08/18 02:21:39;;;;;;;2.50;1.30;;;;;;;;;;5016390;28;20037;-43
2021/08/18 02:24:06;;;;;;;2.47;1.23;;;;;;;;;;5015065;28;20433;-43
2021/08/18 02:26:32;;;;;;;2.28;1.40;;;;;;;;;;5016342;28;20025;-42
2021/08/18 02:28:58;;;;;;;2.75;1.40;;;;;;;;;;5016391;28;20033;-43
2021/08/18 02:31:27;;;;;;;3.00;1.40;;;;;;;;;;5016420;28;20022;-44
2021/08/18 02:33:53;;;;;;;4.30;1.60;;;;;;;;;;5016154;28;20034;-42
2021/08/18 02:36:19;;;;;;;3.33;1.90;;;;;;;;;;5016079;28;20026;-44
2021/08/18 02:38:46;;;;;;;3.03;1.27;;;;;;;;;;5016091;28;20037;-44
2021/08/18 02:41:12;;;;;;;2.70;1.52;;;;;;;;;;5015993;28;20196;-43
2021/08/18 02:43:38;;;;;;;4.45;1.40;;;;;;;;;;5016014;28;20108;-43
2021/08/18 02:46:04;;;;;;;8.35;1.50;;;;;;;;;;5015932;28;20449;-44
2021/08/18 02:48:30;;;;;;;5.50;1.50;;;;;;;;;;5015851;28;20459;-44
2021/08/18 02:50:57;;;;;;;3.85;1.60;;;;;;;;;;5015767;28;20034;-43
2021/08/18 02:53:24;;;;;;;7.47;2.13;;;;;;;;;;5015193;28;20025;-43
2021/08/18 02:55:52;;;;;;;7.03;2.00;;;;;;;;;;5015949;28;20510;-42
2021/08/18 02:58:18;;;;;;;2.17;1.55;;;;;;;;;;5015874;28;20038;-42
2021/08/18 03:00:44;;;;;;;3.10;1.45;;;;;;;;;;5015799;28;20109;-42
2021/08/18 03:03:10;;;;;;;3.45;1.50;;;;;;;;;;5015675;28;20044;-43
2021/08/18 03:05:37;;;;;;;2.75;1.73;;;;;;;;;;5015538;28;20021;-43
2021/08/18 03:08:03;;;;;;;2.78;1.65;;;;;;;;;;5015480;28;20045;-42
2021/08/18 03:10:29;;;;;;;3.50;1.50;;;;;;;;;;5015254;28;20065;-44
2021/08/18 03:12:55;;;;;;;7.60;1.90;;;;;;;;;;5015511;28;20026;-43
2021/08/18 03:15:21;;;;;;;5.32;1.90;;;;;;;;;;5015325;28;20038;-43
2021/08/18 03:17:47;;;;;;;3.67;1.70;;;;;;;;;;5014134;28;20038;-43
2021/08/18 03:20:13;;;;;;;3.30;1.70;;;;;;;;;;5015265;28;20045;-43
2021/08/18 03:22:39;;;;;;;6.50;2.10;;;;;;;;;;5015313;28;20030;-43
2021/08/18 03:25:06;;;;;;;4.15;1.83;;;;;;;;;;5015125;28;20054;-42
2021/08/18 03:27:32;;;;;;;3.53;1.67;;;;;;;;;;5015184;28;20021;-43
2021/08/18 03:29:58;;;;;;;2.22;1.58;;;;;;;;;;5015251;28;20029;-43
2021/08/18 03:32:24;;;;;;;6.00;1.60;;;;;;;;;;5015098;28;20025;-43
2021/08/18 03:34:50;;;;;;;3.60;1.73;;;;;;;;;;5014966;28;20026;-44
2021/08/18 03:37:17;;;;;;;3.58;1.75;;;;;;;;;;5014989;28;20028;-43
2021/08/18 03:39:43;;;;;;;2.85;1.50;;;;;;;;;;5014971;28;20033;-43
2021/08/18 03:42:09;;;;;;;3.63;1.85;;;;;;;;;;5013833;28;20504;-43
2021/08/18 03:44:35;;;;;;;5.10;1.70;;;;;;;;;;5015066;28;20025;-43
2021/08/18 03:47:01;;;;;;;2.33;1.70;;;;;;;;;;5014896;28;20028;-43
2021/08/18 03:49:27;;;;;;;4.72;1.92;;;;;;;;;;5014894;28;20072;-44
2021/08/18 03:51:55;;;;;;;5.18;1.75;;;;;;;;;;5014740;28;20033;-43
2021/08/18 03:54:21;;;;;;;22.83;2.10;;;;;;;;;;5013225;28;20137;-44
2021/08/18 03:56:47;;;;;;;3.60;1.48;;;;;;;;;;5014660;28;20560;-43
2021/08/18 03:59:13;;;;;;;7.72;4.75;;;;;;;;;;5014616;28;20029;-43
2021/08/18 04:01:40;;;;;;;5.10;3.30;;;;;;;;;;5014606;28;20025;-43
2021/08/18 04:04:06;;;;;;;7.28;4.97;;;;;;;;;;5013647;28;20029;-43
2021/08/18 04:06:32;;;;;;;54.67;4.18;;;;;;;;;;5014505;28;20064;-43
2021/08/18 04:08:58;;;;;;;89.10;8.35;;;;;;;;;;5014231;28;20045;-43
2021/08/18 04:11:25;;;;;;;60.80;6.57;;;;;;;;;;5014527;28;20038;-43
2021/08/18 04:13:51;;;;;;;29.95;4.13;;;;;;;;;;5014334;28;20108;-43
2021/08/18 04:16:17;;;;;;;12.18;2.13;;;;;;;;;;5014293;28;20034;-43
2021/08/18 04:18:44;;;;;;;5.32;2.25;;;;;;;;;;5014340;28;20113;-42
2021/08/18 04:21:13;;;;;;;7.53;3.70;;;;;;;;;;5014081;28;20037;-42
2021/08/18 04:23:39;;;;;;;6.80;2.40;;;;;;;;;;5014292;28;20080;-42
2021/08/18 04:26:06;;;;;;;13.55;6.45;;;;;;;;;;5014145;28;20479;-42
2021/08/18 04:28:34;;;;;;;6.85;4.32;;;;;;;;;;5014124;28;20113;-42
2021/08/18 04:31:00;;;;;;;12.27;5.82;;;;;;;;;;5014098;28;20045;-42
2021/08/18 04:33:26;;;;;;;4.88;2.90;;;;;;;;;;5014086;28;20117;-42
2021/08/18 04:35:52;;;;;;;5.50;2.90;;;;;;;;;;5013848;28;20048;-42
2021/08/18 04:38:18;;;;;;;7.85;2.50;;;;;;;;;;5013922;28;20458;-42
2021/08/18 04:40:44;;;;;;;5.15;2.00;;;;;;;;;;5014132;28;20402;-42
2021/08/18 04:43:14;;;;;;;10.05;2.08;;;;;;;;;;5013905;28;20018;-42
2021/08/18 04:45:40;;;;;;;8.23;3.83;;;;;;;;;;5013958;28;20061;-42
2021/08/18 04:48:06;;;;;;;6.68;2.50;;;;;;;;;;5013666;28;20026;-42
2021/08/18 04:50:33;;;;;;;4.68;2.63;;;;;;;;;;5013638;28;20032;-42
2021/08/18 04:52:59;;;;;;;6.78;3.50;;;;;;;;;;5013778;28;20105;-45
2021/08/18 04:55:27;;;;;;;5.07;2.80;;;;;;;;;;5013759;28;20040;-45
2021/08/18 04:57:53;;;;;;;7.60;3.45;;;;;;;;;;5013718;28;20053;-46
2021/08/18 05:00:19;;;;;;;9.77;5.00;;;;;;;;;;5013641;28;20032;-44
2021/08/18 05:02:45;;;;;;;9.13;3.28;;;;;;;;;;5013527;28;20053;-44
2021/08/18 05:05:12;;;;;;;13.50;6.65;;;;;;;;;;5013506;28;20064;-42
2021/08/18 05:07:38;;;;;;;21.05;11.77;;;;;;;;;;5013385;28;20110;-42
2021/08/18 05:10:04;;;;;;;12.05;4.35;;;;;;;;;;5013281;28;20050;-43
2021/08/18 05:12:31;;;;;;;13.57;7.03;;;;;;;;;;5013570;28;20426;-43
2021/08/18 05:14:57;;;;;;;16.67;9.70;;;;;;;;;;5014004;28;20113;-43
2021/08/18 05:17:23;;;;;;;10.98;4.70;;;;;;;;;;5019847;28;20018;-42
2021/08/18 05:19:49;;;;;;;13.02;6.72;;;;;;;;;;5020064;28;20030;-42
2021/08/18 05:22:15;;;;;;;13.77;7.82;;;;;;;;;;5019837;28;20022;-42
2021/08/18 05:24:41;;;;;;;20.75;9.77;;;;;;;;;;5020051;28;20026;-43
2021/08/18 05:27:07;;;;;;;9.52;5.57;;;;;;;;;;5020051;28;20030;-42
2021/08/18 05:29:33;;;;;;;11.68;5.15;;;;;;;;;;5019893;28;20026;-42
2021/08/18 05:31:59;;;;;;;7.03;4.25;;;;;;;;;;5019907;28;20545;-43
2021/08/18 05:34:25;;;;;;;7.07;3.08;;;;;;;;;;5019828;28;20026;-43
2021/08/18 05:36:51;;;;;;;8.23;3.45;;;;;;;;;;5019831;28;20021;-43
2021/08/18 05:39:18;;;;;;;13.38;3.25;;;;;;;;;;5019869;28;20025;-44
2021/08/18 05:41:44;;;;;;;4.50;2.50;;;;;;;;;;5019949;28;20038;-42
2021/08/18 05:44:10;;;;;;;4.53;2.20;;;;;;;;;;5019867;28;20105;-45
2021/08/18 05:46:36;;;;;;;5.45;2.30;;;;;;;;;;5019920;28;20118;-42
2021/08/18 05:49:02;;;;;;;5.47;1.95;;;;;;;;;;5019871;28;20017;-42
2021/08/18 05:51:28;;;;;;;7.22;2.63;;;;;;;;;;5019729;28;20068;-42
2021/08/18 05:53:54;;;;;;;9.95;2.65;;;;;;;;;;5019747;28;20026;-42
2021/08/18 05:56:20;;;;;;;9.10;2.42;;;;;;;;;;5019600;28;20032;-42
2021/08/18 05:58:46;;;;;;;13.18;3.10;;;;;;;;;;5019848;28;20030;-43
2021/08/18 06:01:12;;;;;;;29.83;17.10;;;;;;;;;;5019631;28;20026;-41
2021/08/18 06:03:38;;;;;;;25.15;14.65;;;;;;;;;;5019631;28;20058;-41
2021/08/18 06:06:05;;;;;;;18.85;10.23;;;;;;;;;;5019621;28;20504;-43
2021/08/18 06:08:31;;;;;;;11.32;6.80;;;;;;;;;;5019308;28;20478;-42
2021/08/18 06:10:57;;;;;;;8.63;4.53;;;;;;;;;;5019754;28;20452;-41
2021/08/18 06:13:23;;;;;;;7.28;2.70;;;;;;;;;;5019638;28;20018;-42
2021/08/18 06:15:49;;;;;;;9.73;2.85;;;;;;;;;;5019562;28;20038;-43
2021/08/18 06:18:15;;;;;;;9.63;4.72;;;;;;;;;;5019661;28;20029;-43
2021/08/18 06:20:44;;;;;;;7.10;2.47;;;;;;;;;;5019488;28;20028;-43
2021/08/18 06:23:12;;;;;;;5.20;2.05;;;;;;;;;;5019573;28;20041;-43
2021/08/18 06:25:41;;;;;;;3.83;2.10;;;;;;;;;;5019332;28;20526;-42
2021/08/18 06:28:07;;;;;;;4.72;1.95;;;;;;;;;;5016044;28;20025;-42
2021/08/18 06:30:33;;;;;;;6.03;2.10;;;;;;;;;;5016385;28;20029;-44
2021/08/18 06:32:59;;;;;;;9.43;2.72;;;;;;;;;;5016299;28;20025;-44
2021/08/18 06:35:26;;;;;;;6.97;1.75;;;;;;;;;;5016054;28;20450;-42
2021/08/18 06:37:52;;;;;;;4.00;2.03;;;;;;;;;;5016041;28;20026;-43
2021/08/18 06:40:18;;;;;;;3.25;1.77;;;;;;;;;;5016026;28;20053;-44
2021/08/18 06:42:44;;;;;;;3.22;1.63;;;;;;;;;;5016101;28;20089;-42
2021/08/18 06:45:12;;;;;;;4.53;1.50;;;;;;;;;;5016135;28;20022;-43
2021/08/18 06:47:38;;;;;;;5.82;1.65;;;;;;;;;;5016011;28;20026;-43
2021/08/18 06:50:05;;;;;;;6.35;1.65;;;;;;;;;;5015876;28;20091;-44
2021/08/18 06:52:31;;;;;;;7.20;1.80;;;;;;;;;;5014429;28;20385;-44
2021/08/18 06:54:57;;;;;;;3.65;1.60;;;;;;;;;;5015746;28;20025;-44
2021/08/18 06:57:23;;;;;;;7.80;1.70;;;;;;;;;;5015745;28;20104;-44
2021/08/18 06:59:50;;;;;;;6.72;1.67;;;;;;;;;;5015797;28;20026;-44
2021/08/18 07:02:18;;;;;;;8.38;2.15;;;;;;;;;;5015754;28;20425;-43
2021/08/18 07:04:44;;;;;;;4.72;1.80;;;;;;;;;;5015706;28;20025;-44
2021/08/18 07:07:10;;;;;;;4.63;1.80;;;;;;;;;;5015508;28;20109;-43
2021/08/18 07:09:36;;;;;;;4.15;2.00;;;;;;;;;;5015224;28;20050;-43
2021/08/18 07:12:02;;;;;;;7.38;1.98;;;;;;;;;;5015457;28;20030;-43
2021/08/18 07:14:28;;;;;;;3.50;2.00;;;;;;;;;;5015348;28;20490;-43
2021/08/18 07:16:54;;;;;;;2.92;1.75;;;;;;;;;;5015749;28;20029;-43
2021/08/18 07:19:20;;;;;;;4.32;1.80;;;;;;;;;;5015279;28;20026;-43
2021/08/18 07:21:46;;;;;;;4.10;1.88;;;;;;;;;;5015170;28;20030;-41
2021/08/18 07:24:12;;;;;;;2.97;1.40;;;;;;;;;;5015245;28;20037;-43
2021/08/18 07:26:38;;;;;;;5.03;1.92;;;;;;;;;;5015068;28;20036;-43
2021/08/18 07:29:05;;;;;;;5.30;1.80;;;;;;;;;;5015134;28;20030;-43
2021/08/18 07:31:31;;;;;;;5.63;1.90;;;;;;;;;;5014892;28;20026;-43
2021/08/18 07:33:57;;;;;;;5.07;2.05;;;;;;;;;;5014999;28;20022;-43
2021/08/18 07:36:23;;;;;;;6.43;1.73;;;;;;;;;;5014604;28;20030;-42
2021/08/18 07:38:50;;;;;;;6.95;2.50;;;;;;;;;;5014423;28;20030;-43
2021/08/18 07:41:16;;;;;;;23.70;14.70;;;;;;;;;;5014780;28;20041;-43
2021/08/18 07:43:42;;;;;;;34.65;18.52;;;;;;;;;;5014819;28;20089;-44
2021/08/18 07:46:08;;;;;;;13.07;5.65;;;;;;;;;;5014812;28;20497;-42
2021/08/18 07:48:34;;;;;;;14.88;9.20;;;;;;;;;;4995717;28;20026;-40
2021/08/18 07:51:00;;;;;;;39.42;24.73;;;;;;;;;;4993305;28;20037;-41
2021/08/18 07:53:29;;;;;;;20.52;14.40;;;;;;;;;;4993585;28;20046;-43
2021/08/18 07:55:55;;;;;;;31.25;18.23;;;;;;;;;;4993933;28;20042;-44
2021/08/18 07:58:23;;;;;;;16.48;10.93;;;;;;;;;;4995063;28;20030;-43
2021/08/18 08:00:50;;;;;;;7.10;4.07;;;;;;;;;;4995066;28;20059;-43
2021/08/18 08:03:16;;;;;;;5.90;2.25;;;;;;;;;;4993663;28;20030;-43
2021/08/18 08:05:42;;;;;;;15.23;3.40;;;;;;;;;;4993429;28;20060;-43
2021/08/18 08:08:08;;;;;;;39.65;11.07;;;;;;;;;;4993277;28;20026;-41
2021/08/18 08:10:34;;;;;;;25.80;6.57;;;;;;;;;;4993067;28;20054;-42
2021/08/18 08:13:03;;;;;;;14.57;5.15;;;;;;;;;;4994789;28;20050;-42
2021/08/18 08:15:29;;;;;;;18.17;4.78;;;;;;;;;;4994662;28;20057;-44
2021/08/18 08:17:55;;;;;;;13.18;3.55;;;;;;;;;;4994942;28;20026;-44
2021/08/18 08:20:22;;;;;;;7.63;2.80;;;;;;;;;;4994855;28;20058;-42
2021/08/18 08:22:48;;;;;;;6.63;2.20;;;;;;;;;;4994595;28;20480;-46
2021/08/18 08:25:17;;;;;;;3.17;2.10;;;;;;;;;;4994688;28;20088;-42
2021/08/18 08:27:43;;;;;;;3.22;1.70;;;;;;;;;;4994649;28;20049;-43
2021/08/18 08:30:09;;;;;;;4.38;2.35;;;;;;;;;;4994540;28;20113;-43
2021/08/18 08:32:36;;;;;;;3.28;2.08;;;;;;;;;;4994546;28;20077;-43
2021/08/18 08:35:02;;;;;;;6.07;2.08;;;;;;;;;;4994443;28;20034;-43
2021/08/18 08:37:31;;;;;;;4.93;1.73;;;;;;;;;;4994411;28;20352;-43
2021/08/18 08:39:57;;;;;;;3.88;1.55;;;;;;;;;;4994225;28;20037;-43
2021/08/18 08:42:23;;;;;;;3.22;1.60;;;;;;;;;;4994626;28;20446;-42
2021/08/18 08:44:53;;;;;;;6.43;1.70;;;;;;;;;;4994313;28;20459;-43
2021/08/18 08:47:20;;;;;;;4.60;1.50;;;;;;;;;;4994434;28;20044;-43
2021/08/18 08:49:47;;;;;;;3.05;1.70;;;;;;;;;;4994061;28;20022;-43
2021/08/18 08:52:14;;;;;;;2.88;1.42;;;;;;;;;;4994045;28;20057;-42
2021/08/18 08:54:43;;;;;;;3.55;1.80;;;;;;;;;;4994297;28;20026;-43
2021/08/18 08:57:12;;;;;;;3.15;1.67;;;;;;;;;;4994091;28;20037;-44
2021/08/18 08:59:39;;;;;;;2.63;1.63;;;;;;;;;;4994386;28;20019;-43
2021/08/18 09:02:08;;;;;;;4.32;2.13;;;;;;;;;;4994058;28;20497;-42
2021/08/18 09:04:34;;;;;;;5.53;1.45;;;;;;;;;;4994171;28;20030;-43
2021/08/18 09:07:21;;;;;;;2.72;1.42;;;;;;;;;;4994096;28;20081;-43
2021/08/18 09:09:53;;;;;;;5.75;1.83;;;;;;;;;;4993921;28;20069;-45
2021/08/18 09:12:20;;;;;;;12.68;4.57;;;;;;;;;;4994233;28;20105;-45
2021/08/18 09:14:46;;;;;;;9.68;2.22;;;;;;;;;;4994026;28;20126;-43
2021/08/18 09:17:30;;;;;;;5.05;2.10;;;;;;;;;;4994115;28;20037;-44
2021/08/18 09:19:59;;;;;;;4.95;1.92;;;;;;;;;;4993998;28;20050;-44
2021/08/18 09:22:26;;;;;;;5.32;1.65;;;;;;;;;;4993897;28;20018;-43
2021/08/18 09:25:07;;;;;;;8.10;3.50;;;;;;;;;;4993823;28;20026;-43
2021/08/18 09:27:33;;;;;;;8.95;2.20;;;;;;;;;;4993828;28;20064;-42
2021/08/18 09:29:59;;;;;;;6.90;2.10;;;;;;;;;;4992596;28;20379;-43
2021/08/18 09:32:25;;;;;;;3.60;1.70;;;;;;;;;;4993816;28;20033;-42
2021/08/18 09:34:52;;;;;;;2.95;1.73;;;;;;;;;;4993808;28;20479;-43
2021/08/18 09:37:18;;;;;;;3.13;1.65;;;;;;;;;;4993789;28;20034;-43
2021/08/18 09:39:44;;;;;;;2.15;1.50;;;;;;;;;;4993553;28;20089;-43
2021/08/18 09:42:29;;;;;;;6.65;2.33;;;;;;;;;;4993781;28;20031;-43
2021/08/18 09:45:11;;;;;;;7.38;3.17;;;;;;;;;;4993796;28;20045;-44
2021/08/18 09:47:59;;;;;;;5.72;2.28;;;;;;;;;;4991628;28;20026;-41
2021/08/18 09:50:26;;;;;;;78.70;57.67;;;;;;;;;;4991615;28;20097;-43
2021/08/18 09:52:53;;;;;;;45.95;30.10;;;;;;;;;;4992150;28;20058;-41
2021/08/18 09:55:23;;;;;;;72.53;48.55;;;;;;;;;;4992058;28;20081;-40
2021/08/18 09:57:49;;;;;;;35.80;23.70;;;;;;;;;;4992257;28;20422;-41
2021/08/18 10:00:15;;;;;;;28.55;19.35;;;;;;;;;;4992026;28;20257;-41
2021/08/18 10:02:42;;;;;;;24.88;13.48;;;;;;;;;;4993203;28;20072;-41
2021/08/18 10:05:08;;;;;;;23.08;14.00;;;;;;;;;;4995730;28;20041;-40
2021/08/18 10:07:34;;;;;;;17.38;9.65;;;;;;;;;;4997039;28;20026;-40
2021/08/18 10:10:03;;;;;;;70.03;46.58;;;;;;;;;;4996725;28;20049;-43
2021/08/18 10:12:33;;;;;;;12.07;7.78;;;;;;;;;;4996834;28;20047;-41
2021/08/18 10:15:03;;;;;;;26.50;16.55;;;;;;;;;;4996868;28;20547;-42
2021/08/18 10:17:30;;;;;;;38.80;20.90;;;;;;;;;;4996892;28;20375;-43
2021/08/18 10:19:56;;;;;;;92.03;56.75;;;;;;;;;;4996811;28;20477;-44
2021/08/18 10:22:29;;;;;;;20.27;12.73;;;;;;;;;;4996513;28;20089;-43
2021/08/18 10:24:55;;;;;;;49.33;28.73;;;;;;;;;;4996820;28;20027;-42
2021/08/18 10:27:50;;;;;;;16.30;11.15;;;;;;;;;;4997019;28;20383;-42
2021/08/18 10:30:23;;;;;;;15.63;10.55;;;;;;;;;;4955799;29;20400;-43
2021/08/18 10:32:52;;;;;;;36.85;19.17;;;;;;;;;;4955800;29;20436;-44
2021/08/18 10:35:36;;;;;;;11.40;7.57;;;;;;;;;;4955652;29;20531;-42
2021/08/18 10:38:23;;;;;;;11.05;7.00;;;;;;;;;;4954153;28;20104;-42
2021/08/18 10:40:49;;;;;;;20.63;14.73;;;;;;;;;;4954172;29;20525;-41
2021/08/18 10:43:33;;;;;;;25.30;14.15;;;;;;;;;;4954199;29;20050;-41
2021/08/18 10:45:59;;;;;;;11.60;6.63;;;;;;;;;;4954272;29;20027;-41
2021/08/18 10:48:44;;;;;;;15.88;9.75;;;;;;;;;;4954556;29;20049;-42
2021/08/18 10:51:10;;;;;;;14.77;7.28;;;;;;;;;;4953998;29;20391;-41
2021/08/18 10:53:36;;;;;;;37.67;27.13;;;;;;;;;;4954273;29;20110;-42
2021/08/18 10:56:22;;;;;;;43.20;31.45;;;;;;;;;;4953262;29;20043;-40
2021/08/18 10:58:50;;;;;;;16.42;9.38;;;;;;;;;;4952001;29;20019;-41
2021/08/18 11:01:41;;;;;;;46.05;32.47;;;;;;;;;;4953796;29;20053;-42
2021/08/18 11:04:26;;;;;;;64.55;44.83;;;;;;;;;;4955285;28;20027;-41
2021/08/18 11:06:54;;;;;;;39.97;27.23;;;;;;;;;;4977480;28;20042;-42
2021/08/18 11:09:39;;;;;;;17.27;12.15;;;;;;;;;;4995684;28;20075;-41
2021/08/18 11:12:07;;;;;;;13.23;9.23;;;;;;;;;;4996007;28;20045;-42
2021/08/18 11:14:36;;;;;;;13.00;8.52;;;;;;;;;;4994536;28;20038;-42
2021/08/18 11:17:06;;;;;;;87.43;63.33;;;;;;;;;;4995599;28;20035;-44
2021/08/18 11:19:33;;;;;;;24.83;17.40;;;;;;;;;;4995762;28;20610;-43
2021/08/18 11:21:59;;;;;;;53.88;38.67;;;;;;;;;;4995737;28;20062;-43
2021/08/18 11:24:25;;;;;;;17.88;11.23;;;;;;;;;;4995808;28;20027;-43
2021/08/18 11:26:53;;;;;;;22.17;14.02;;;;;;;;;;4995709;28;20023;-44
2021/08/18 11:29:21;;;;;;;16.13;10.13;;;;;;;;;;4995427;28;20483;-42
2021/08/18 11:31:53;;;;;;;20.42;13.05;;;;;;;;;;4995388;28;20081;-42
2021/08/18 11:34:29;;;;;;;12.32;8.23;;;;;;;;;;4995641;28;20101;-44
2021/08/18 11:37:05;;;;;;;12.35;7.72;;;;;;;;;;4995276;28;20550;-40
2021/08/18 11:39:34;;;;;;;16.08;9.60;;;;;;;;;;4995409;28;20023;-40
2021/08/18 11:42:08;;;;;;;14.10;6.97;;;;;;;;;;4995273;28;20578;-41
2021/08/18 11:44:34;;;;;;;36.15;25.48;;;;;;;;;;4995110;28;20026;-43
2021/08/18 11:47:08;;;;;;;36.85;21.33;;;;;;;;;;4995175;28;20073;-43
2021/08/18 11:49:35;;;;;;;15.95;8.63;;;;;;;;;;4995145;28;20026;-42
2021/08/18 11:52:01;;;;;;;7.20;4.93;;;;;;;;;;4995072;28;20483;-41
2021/08/18 11:54:27;;;;;;;26.88;17.35;;;;;;;;;;4995180;28;20479;-41
2021/08/18 11:57:01;;;;;;;44.88;26.73;;;;;;;;;;4994863;28;20118;-41
2021/08/18 11:59:27;;;;;;;13.73;8.55;;;;;;;;;;4994944;28;20033;-41
2021/08/18 12:01:54;;;;;;;52.67;30.63;;;;;;;;;;4995239;28;20387;-41
2021/08/18 12:04:21;;;;;;;11.52;7.95;;;;;;;;;;4994810;28;20022;-42
2021/08/18 12:06:47;;;;;;;22.75;12.35;;;;;;;;;;4994931;28;20037;-41
2021/08/18 12:09:23;;;;;;;22.95;13.00;;;;;;;;;;4994632;28;20053;-41
2021/08/18 12:11:49;;;;;;;39.35;23.77;;;;;;;;;;4994787;28;20153;-41
2021/08/18 12:14:16;;;;;;;12.73;6.05;;;;;;;;;;4994652;28;20026;-41
2021/08/18 12:16:43;;;;;;;19.50;13.07;;;;;;;;;;4994595;28;20038;-41
2021/08/18 12:19:18;;;;;;;28.38;20.25;;;;;;;;;;4994754;28;20379;-41
2021/08/18 12:21:46;;;;;;;22.50;12.80;;;;;;;;;;4994699;28;20030;-43
2021/08/18 12:24:14;;;;;;;17.10;11.57;;;;;;;;;;4994624;28;20053;-43
2021/08/18 12:26:41;;;;;;;29.35;16.15;;;;;;;;;;4993973;28;20541;-43
2021/08/18 12:29:08;;;;;;;19.25;13.98;;;;;;;;;;4994256;28;20034;-42
2021/08/18 12:31:54;;;;;;;31.27;18.55;;;;;;;;;;4992569;28;20026;-43
2021/08/18 12:34:29;;;;;;;21.20;14.00;;;;;;;;;;4992932;28;20073;-43
2021/08/18 12:37:14;;;;;;;7.60;4.80;;;;;;;;;;4992806;28;20034;-41
2021/08/18 12:39:44;;;;;;;8.75;3.13;;;;;;;;;;4994086;28;20030;-44
2021/08/18 12:42:11;;;;;;;5.20;3.13;;;;;;;;;;4980569;28;20451;-42
2021/08/18 12:44:38;;;;;;;11.05;6.00;;;;;;;;;;4969948;28;20557;-42
2021/08/18 12:47:14;;;;;;;8.15;4.63;;;;;;;;;;4969939;28;20881;-42
2021/08/18 12:49:48;;;;;;;34.30;25.88;;;;;;;;;;4969783;28;20061;-42
2021/08/18 12:52:15;;;;;;;13.57;8.52;;;;;;;;;;4969719;28;20030;-42
2021/08/18 12:54:41;;;;;;;29.60;20.05;;;;;;;;;;4969926;28;20340;-42
2021/08/18 12:57:08;;;;;;;22.23;14.10;;;;;;;;;;4969847;28;20065;-41
2021/08/18 12:59:38;;;;;;;11.57;9.23;;;;;;;;;;4969901;28;20031;-40
2021/08/18 13:02:05;;;;;;;17.63;7.53;;;;;;;;;;4969325;28;20033;-42
2021/08/18 13:04:31;;;;;;;27.30;20.25;;;;;;;;;;4969761;28;20133;-43
2021/08/18 13:06:57;;;;;;;22.63;14.15;;;;;;;;;;4969227;28;20026;-43
2021/08/18 13:09:24;;;;;;;25.45;18.52;;;;;;;;;;4968998;28;20046;-42
2021/08/18 13:11:50;;;;;;;40.40;27.52;;;;;;;;;;4969038;28;20439;-41
2021/08/18 13:14:17;;;;;;;14.38;9.38;;;;;;;;;;4969589;28;20021;-42
2021/08/18 13:16:43;;;;;;;10.02;5.47;;;;;;;;;;4973795;28;20082;-42
2021/08/18 13:19:09;;;;;;;10.65;6.75;;;;;;;;;;4974438;28;20058;-42
2021/08/18 13:21:36;;;;;;;20.02;11.50;;;;;;;;;;4974361;28;20042;-43
2021/08/18 13:24:02;;;;;;;35.70;24.05;;;;;;;;;;4974458;28;20025;-41
2021/08/18 13:26:30;;;;;;;23.20;14.73;;;;;;;;;;4974271;28;20038;-40
2021/08/18 13:28:56;;;;;;;20.85;14.15;;;;;;;;;;4973112;28;20502;-43
2021/08/18 13:31:23;;;;;;;56.92;38.90;;;;;;;;;;4974788;28;20026;-43
2021/08/18 13:33:49;;;;;;;49.28;29.67;;;;;;;;;;4974244;28;20061;-41
2021/08/18 13:36:15;;;;;;;38.05;28.52;;;;;;;;;;4986534;28;20368;-41
2021/08/18 13:38:41;;;;;;;42.20;29.60;;;;;;;;;;4997436;28;20033;-43
2021/08/18 13:41:07;;;;;;;12.85;7.75;;;;;;;;;;4988036;28;20711;-42
2021/08/18 13:43:33;;;;;;;23.58;16.42;;;;;;;;;;4973451;28;20077;-42
2021/08/18 13:46:00;;;;;;;39.35;24.13;;;;;;;;;;4973196;28;20543;-43
2021/08/18 13:48:26;;;;;;;19.42;12.98;;;;;;;;;;4973090;28;20030;-40
2021/08/18 13:50:52;;;;;;;18.08;12.77;;;;;;;;;;4973117;28;20023;-41
2021/08/18 13:53:18;;;;;;;32.05;21.85;;;;;;;;;;4973251;28;20482;-40
2021/08/18 13:55:44;;;;;;;19.67;14.75;;;;;;;;;;4972969;28;20145;-41
2021/08/18 13:58:11;;;;;;;29.00;20.67;;;;;;;;;;4972981;28;20019;-41
2021/08/18 14:00:38;;;;;;;8.00;5.35;;;;;;;;;;4973429;28;20741;-41
2021/08/18 14:03:04;;;;;;;35.58;21.75;;;;;;;;;;4972946;28;20023;-41
2021/08/18 14:05:30;;;;;;;33.20;24.20;;;;;;;;;;4973706;28;20092;-41
2021/08/18 14:07:56;;;;;;;30.83;21.27;;;;;;;;;;4972956;28;20773;-41
2021/08/18 14:10:27;;;;;;;26.33;19.27;;;;;;;;;;4972494;28;20054;-43
2021/08/18 14:12:53;;;;;;;30.42;20.48;;;;;;;;;;4972438;28;20018;-43
2021/08/18 14:15:20;;;;;;;24.65;17.40;;;;;;;;;;4972767;28;20060;-43
2021/08/18 14:17:47;;;;;;;9.57;7.72;;;;;;;;;;4972930;28;20542;-42
2021/08/18 14:20:13;;;;;;;10.55;5.78;;;;;;;;;;4973093;28;20026;-41
2021/08/18 14:22:41;;;;;;;9.07;6.35;;;;;;;;;;4972348;28;20062;-42
2021/08/18 14:25:08;;;;;;;11.20;4.80;;;;;;;;;;4972768;28;20049;-42
2021/08/18 14:27:34;;;;;;;8.38;4.35;;;;;;;;;;4972309;28;20030;-43
2021/08/18 14:30:00;;;;;;;6.95;3.38;;;;;;;;;;4972322;28;20041;-43
2021/08/18 14:32:26;;;;;;;6.07;3.42;;;;;;;;;;4972316;28;20038;-44
2021/08/18 14:34:52;;;;;;;8.20;3.22;;;;;;;;;;4972507;28;20113;-41
2021/08/18 14:37:20;;;;;;;7.47;2.83;;;;;;;;;;4972160;28;20041;-42